sensor_id;sensor_type;location;lat;lon;timestamp;pressure;altitude;pressure_sealevel;temperature;humidity
18167;BME280;9208;42.688;23.404;2023-02-15T00:01:45;96713.03;;;4.42;100.00
18167;BME280;9208;42.688;23.404;2023-02-15T00:04:14;96714.25;;;4.38;100.00
18167;BME280;9208;42.688;23.404;2023-02-15T00:06:40;96713.84;;;4.39;100.00
18167;BME280;9208;42.688;23.404;2023-02-15T00:09:06;96717.75;;;4.38;100.00
18167;BME280;9208;42.688;23.404;2023-02-15T00:11:31;96723.63;;;4.33;100.00
18167;BME280;9208;42.688;23.404;2023-02-15T00:14:23;96726.69;;;4.35;100.00
18167;BME280;9208;42.688;23.404;2023-02-15T00:16:51;96722.81;;;4.36;100.00
18167;BME280;9208;42.688;23.404;2023-02-15T00:19:18;96724.81;;;4.32;100.00
18167;BME280;9208;42.688;23.404;2023-02-15T00:21:44;96717.06;;;4.31;100.00
18167;BME280;9208;42.688;23.404;2023-02-15T00:24:12;96718.97;;;4.34;100.00
18167;BME280;9208;42.688;23.404;2023-02-15T00:26:39;96729.84;;;4.30;100.00
18167;BME280;9208;42.688;23.404;2023-02-15T00:29:05;96729.56;;;4.25;100.00
18167;BME280;9208;42.688;23.404;2023-02-15T00:31:32;96728.00;;;4.24;100.00
18167;BME280;9208;42.688;23.404;2023-02-15T00:34:27;96726.47;;;4.23;100.00
18167;BME280;9208;42.688;23.404;2023-02-15T00:36:53;96727.69;;;4.18;100.00
18167;BME280;9208;42.688;23.404;2023-02-15T00:39:19;96728.53;;;4.12;100.00
18167;BME280;9208;42.688;23.404;2023-02-15T00:41:46;96729.66;;;4.14;100.00
18167;BME280;9208;42.688;23.404;2023-02-15T00:44:13;96730.06;;;4.13;100.00
18167;BME280;9208;42.688;23.404;2023-02-15T00:46:38;96733.53;;;4.13;100.00
18167;BME280;9208;42.688;23.404;2023-02-15T00:49:04;96729.34;;;4.09;100.00
18167;BME280;9208;42.688;23.404;2023-02-15T00:51:31;96726.22;;;4.10;100.00
18167;BME280;9208;42.688;23.404;2023-02-15T00:53:56;96720.78;;;4.10;100.00
18167;BME280;9208;42.688;23.404;2023-02-15T00:56:25;96729.75;;;4.07;100.00
18167;BME280;9208;42.688;23.404;2023-02-15T00:58:50;96728.25;;;4.03;100.00
18167;BME280;9208;42.688;23.404;2023-02-15T01:01:18;96723.97;;;4.02;100.00
18167;BME280;9208;42.688;23.404;2023-02-15T01:03:44;96721.66;;;4.04;100.00
18167;BME280;9208;42.688;23.404;2023-02-15T01:06:12;96722.03;;;4.02;100.00
18167;BME280;9208;42.688;23.404;2023-02-15T01:08:38;96711.97;;;4.03;100.00
18167;BME280;9208;42.688;23.404;2023-02-15T01:11:10;96713.16;;;3.98;100.00
18167;BME280;9208;42.688;23.404;2023-02-15T01:13:39;96712.09;;;3.92;100.00
18167;BME280;9208;42.688;23.404;2023-02-15T01:16:05;96712.84;;;3.93;100.00
18167;BME280;9208;42.688;23.404;2023-02-15T01:18:32;96716.72;;;3.92;100.00
18167;BME280;9208;42.688;23.404;2023-02-15T01:20:57;96719.88;;;3.87;100.00
18167;BME280;9208;42.688;23.404;2023-02-15T01:23:23;96717.56;;;3.89;100.00
18167;BME280;9208;42.688;23.404;2023-02-15T01:25:49;96707.84;;;3.88;100.00
18167;BME280;9208;42.688;23.404;2023-02-15T01:28:14;96705.97;;;3.85;100.00
18167;BME280;9208;42.688;23.404;2023-02-15T01:30:40;96702.88;;;3.83;100.00
18167;BME280;9208;42.688;23.404;2023-02-15T01:33:05;96697.81;;;3.85;100.00
18167;BME280;9208;42.688;23.404;2023-02-15T01:35:31;96697.88;;;3.78;100.00
18167;BME280;9208;42.688;23.404;2023-02-15T01:37:57;96703.34;;;3.74;100.00
18167;BME280;9208;42.688;23.404;2023-02-15T01:40:23;96697.53;;;3.76;100.00
18167;BME280;9208;42.688;23.404;2023-02-15T01:42:53;96702.97;;;3.76;100.00
18167;BME280;9208;42.688;23.404;2023-02-15T01:45:21;96699.47;;;3.75;100.00
18167;BME280;9208;42.688;23.404;2023-02-15T01:47:54;96698.22;;;3.83;100.00
18167;BME280;9208;42.688;23.404;2023-02-15T01:53:00;96702.88;;;3.83;100.00
18167;BME280;9208;42.688;23.404;2023-02-15T01:55:32;96683.16;;;3.79;100.00
18167;BME280;9208;42.688;23.404;2023-02-15T01:57:58;96681.22;;;3.79;100.00
18167;BME280;9208;42.688;23.404;2023-02-15T02:00:24;96687.72;;;3.85;100.00
18167;BME280;9208;42.688;23.404;2023-02-15T02:02:53;96693.25;;;3.78;100.00
18167;BME280;9208;42.688;23.404;2023-02-15T02:05:20;96688.97;;;3.77;100.00
18167;BME280;9208;42.688;23.404;2023-02-15T02:07:46;96691.72;;;3.74;100.00
18167;BME280;9208;42.688;23.404;2023-02-15T02:10:16;96690.19;;;3.73;100.00
18167;BME280;9208;42.688;23.404;2023-02-15T02:12:44;96685.59;;;3.66;100.00
18167;BME280;9208;42.688;23.404;2023-02-15T02:15:11;96695.22;;;3.74;100.00
18167;BME280;9208;42.688;23.404;2023-02-15T02:20:35;96698.72;;;3.71;100.00
18167;BME280;9208;42.688;23.404;2023-02-15T02:31:43;96713.47;;;3.70;100.00
18167;BME280;9208;42.688;23.404;2023-02-15T02:36:55;96707.66;;;3.68;100.00
18167;BME280;9208;42.688;23.404;2023-02-15T02:39:49;96701.94;;;3.63;100.00
18167;BME280;9208;42.688;23.404;2023-02-15T02:42:33;96698.81;;;3.61;100.00
18167;BME280;9208;42.688;23.404;2023-02-15T02:45:04;96700.34;;;3.62;100.00
18167;BME280;9208;42.688;23.404;2023-02-15T02:47:40;96704.28;;;3.57;100.00
18167;BME280;9208;42.688;23.404;2023-02-15T02:50:13;96707.34;;;3.59;100.00
18167;BME280;9208;42.688;23.404;2023-02-15T02:52:48;96703.16;;;3.55;100.00
18167;BME280;9208;42.688;23.404;2023-02-15T02:55:47;96705.09;;;3.54;100.00
18167;BME280;9208;42.688;23.404;2023-02-15T02:58:20;96708.56;;;3.55;100.00
18167;BME280;9208;42.688;23.404;2023-02-15T03:01:10;96711.69;;;3.53;100.00
18167;BME280;9208;42.688;23.404;2023-02-15T03:03:42;96711.25;;;3.58;100.00
18167;BME280;9208;42.688;23.404;2023-02-15T03:06:12;96715.09;;;3.61;100.00
18167;BME280;9208;42.688;23.404;2023-02-15T03:08:47;96722.50;;;3.57;100.00
18167;BME280;9208;42.688;23.404;2023-02-15T03:11:14;96728.34;;;3.55;100.00
18167;BME280;9208;42.688;23.404;2023-02-15T03:13:40;96724.81;;;3.58;100.00
18167;BME280;9208;42.688;23.404;2023-02-15T03:16:06;96721.34;;;3.58;100.00
18167;BME280;9208;42.688;23.404;2023-02-15T03:18:56;96725.63;;;3.55;100.00
18167;BME280;9208;42.688;23.404;2023-02-15T03:24:10;96722.50;;;3.57;100.00
18167;BME280;9208;42.688;23.404;2023-02-15T03:26:38;96725.19;;;3.60;100.00
18167;BME280;9208;42.688;23.404;2023-02-15T03:29:06;96730.63;;;3.60;100.00
18167;BME280;9208;42.688;23.404;2023-02-15T03:31:35;96728.19;;;3.69;100.00
18167;BME280;9208;42.688;23.404;2023-02-15T03:34:06;96722.84;;;3.62;100.00
18167;BME280;9208;42.688;23.404;2023-02-15T03:36:44;96720.88;;;3.66;100.00
18167;BME280;9208;42.688;23.404;2023-02-15T03:39:37;96729.78;;;3.63;100.00
18167;BME280;9208;42.688;23.404;2023-02-15T03:44:32;96717.81;;;3.61;100.00
18167;BME280;9208;42.688;23.404;2023-02-15T03:47:13;96718.19;;;3.63;100.00
18167;BME280;9208;42.688;23.404;2023-02-15T03:49:51;96717.00;;;3.64;100.00
18167;BME280;9208;42.688;23.404;2023-02-15T03:52:19;96716.97;;;3.67;100.00
18167;BME280;9208;42.688;23.404;2023-02-15T03:54:45;96722.00;;;3.69;100.00
18167;BME280;9208;42.688;23.404;2023-02-15T03:57:29;96723.19;;;3.68;100.00
18167;BME280;9208;42.688;23.404;2023-02-15T04:00:16;96730.56;;;3.64;100.00
18167;BME280;9208;42.688;23.404;2023-02-15T04:05:36;96726.41;;;3.52;100.00
18167;BME280;9208;42.688;23.404;2023-02-15T04:08:02;96740.31;;;3.54;100.00
18167;BME280;9208;42.688;23.404;2023-02-15T04:10:28;96733.75;;;3.55;100.00
18167;BME280;9208;42.688;23.404;2023-02-15T04:13:12;96736.88;;;3.54;100.00
18167;BME280;9208;42.688;23.404;2023-02-15T04:15:37;96734.13;;;3.57;100.00
18167;BME280;9208;42.688;23.404;2023-02-15T04:18:21;96739.53;;;3.57;100.00
18167;BME280;9208;42.688;23.404;2023-02-15T04:20:46;96741.81;;;3.62;100.00
18167;BME280;9208;42.688;23.404;2023-02-15T04:23:31;96751.88;;;3.65;100.00
18167;BME280;9208;42.688;23.404;2023-02-15T04:26:15;96754.91;;;3.71;100.00
18167;BME280;9208;42.688;23.404;2023-02-15T04:28:40;96763.38;;;3.76;100.00
18167;BME280;9208;42.688;23.404;2023-02-15T04:31:06;96772.25;;;3.80;100.00
18167;BME280;9208;42.688;23.404;2023-02-15T04:33:31;96763.31;;;3.83;100.00
18167;BME280;9208;42.688;23.404;2023-02-15T04:35:57;96767.94;;;3.86;100.00
18167;BME280;9208;42.688;23.404;2023-02-15T04:38:22;96775.22;;;3.93;100.00
18167;BME280;9208;42.688;23.404;2023-02-15T04:40:52;96767.03;;;4.00;100.00
18167;BME280;9208;42.688;23.404;2023-02-15T04:43:18;96771.31;;;3.97;100.00
18167;BME280;9208;42.688;23.404;2023-02-15T04:45:50;96768.16;;;4.02;100.00
18167;BME280;9208;42.688;23.404;2023-02-15T04:48:17;96771.22;;;4.04;100.00
18167;BME280;9208;42.688;23.404;2023-02-15T04:50:43;96770.44;;;4.07;100.00
18167;BME280;9208;42.688;23.404;2023-02-15T04:53:10;96767.72;;;4.07;100.00
18167;BME280;9208;42.688;23.404;2023-02-15T04:55:35;96779.38;;;4.08;100.00
18167;BME280;9208;42.688;23.404;2023-02-15T04:58:01;96779.81;;;4.03;100.00
18167;BME280;9208;42.688;23.404;2023-02-15T05:00:26;96773.94;;;4.04;100.00
18167;BME280;9208;42.688;23.404;2023-02-15T05:02:52;96776.25;;;4.06;100.00
18167;BME280;9208;42.688;23.404;2023-02-15T05:05:18;96785.53;;;4.08;100.00
18167;BME280;9208;42.688;23.404;2023-02-15T05:07:43;96782.81;;;4.08;100.00
18167;BME280;9208;42.688;23.404;2023-02-15T05:10:09;96776.66;;;4.08;100.00
18167;BME280;9208;42.688;23.404;2023-02-15T05:12:34;96790.16;;;4.11;100.00
18167;BME280;9208;42.688;23.404;2023-02-15T05:15:00;96792.88;;;4.11;100.00
18167;BME280;9208;42.688;23.404;2023-02-15T05:17:25;96794.81;;;4.14;100.00
18167;BME280;9208;42.688;23.404;2023-02-15T05:19:51;96794.41;;;4.12;100.00
18167;BME280;9208;42.688;23.404;2023-02-15T05:22:16;96800.22;;;4.14;100.00
18167;BME280;9208;42.688;23.404;2023-02-15T05:24:41;96798.75;;;4.06;100.00
18167;BME280;9208;42.688;23.404;2023-02-15T05:27:25;96805.38;;;4.05;100.00
18167;BME280;9208;42.688;23.404;2023-02-15T05:30:10;96806.50;;;4.04;100.00
18167;BME280;9208;42.688;23.404;2023-02-15T05:32:37;96804.97;;;4.07;100.00
18167;BME280;9208;42.688;23.404;2023-02-15T05:35:04;96806.09;;;4.09;100.00
18167;BME280;9208;42.688;23.404;2023-02-15T05:37:30;96810.34;;;4.10;100.00
18167;BME280;9208;42.688;23.404;2023-02-15T05:39:55;96813.41;;;4.12;100.00
18167;BME280;9208;42.688;23.404;2023-02-15T05:42:20;96813.41;;;4.12;100.00
18167;BME280;9208;42.688;23.404;2023-02-15T05:44:46;96811.84;;;4.15;100.00
18167;BME280;9208;42.688;23.404;2023-02-15T05:47:11;96809.88;;;4.19;100.00
18167;BME280;9208;42.688;23.404;2023-02-15T05:49:37;96809.13;;;4.15;100.00
18167;BME280;9208;42.688;23.404;2023-02-15T05:52:02;96817.72;;;4.10;100.00
18167;BME280;9208;42.688;23.404;2023-02-15T05:54:28;96819.66;;;4.09;100.00
18167;BME280;9208;42.688;23.404;2023-02-15T05:56:53;96825.06;;;4.13;100.00
18167;BME280;9208;42.688;23.404;2023-02-15T05:59:19;96821.56;;;4.12;100.00
18167;BME280;9208;42.688;23.404;2023-02-15T06:01:44;96815.38;;;4.12;100.00
18167;BME280;9208;42.688;23.404;2023-02-15T06:04:10;96821.91;;;4.18;100.00
18167;BME280;9208;42.688;23.404;2023-02-15T06:06:35;96817.66;;;4.17;100.00
18167;BME280;9208;42.688;23.404;2023-02-15T06:09:01;96814.84;;;4.24;100.00
18167;BME280;9208;42.688;23.404;2023-02-15T06:11:27;96822.97;;;4.27;100.00
18167;BME280;9208;42.688;23.404;2023-02-15T06:13:52;96815.59;;;4.28;100.00
18167;BME280;9208;42.688;23.404;2023-02-15T06:16:18;96823.69;;;4.31;100.00
18167;BME280;9208;42.688;23.404;2023-02-15T06:18:43;96826.75;;;4.37;100.00
18167;BME280;9208;42.688;23.404;2023-02-15T06:21:09;96832.88;;;4.44;100.00
18167;BME280;9208;42.688;23.404;2023-02-15T06:23:34;96834.78;;;4.47;100.00
18167;BME280;9208;42.688;23.404;2023-02-15T06:26:00;96829.75;;;4.46;100.00
18167;BME280;9208;42.688;23.404;2023-02-15T06:28:25;96835.19;;;4.46;100.00
18167;BME280;9208;42.688;23.404;2023-02-15T06:30:51;96837.84;;;4.49;100.00
18167;BME280;9208;42.688;23.404;2023-02-15T06:33:17;96834.00;;;4.47;100.00
18167;BME280;9208;42.688;23.404;2023-02-15T06:35:42;96821.19;;;4.47;100.00
18167;BME280;9208;42.688;23.404;2023-02-15T06:38:08;96822.34;;;4.50;100.00
18167;BME280;9208;42.688;23.404;2023-02-15T06:40:33;96827.72;;;4.53;100.00
18167;BME280;9208;42.688;23.404;2023-02-15T06:42:59;96828.38;;;4.64;100.00
18167;BME280;9208;42.688;23.404;2023-02-15T06:45:24;96831.50;;;4.63;100.00
18167;BME280;9208;42.688;23.404;2023-02-15T06:47:50;96833.44;;;4.62;100.00
18167;BME280;9208;42.688;23.404;2023-02-15T06:50:15;96831.44;;;4.70;100.00
18167;BME280;9208;42.688;23.404;2023-02-15T06:52:41;96824.09;;;4.67;100.00
18167;BME280;9208;42.688;23.404;2023-02-15T06:55:06;96818.56;;;4.74;100.00
18167;BME280;9208;42.688;23.404;2023-02-15T06:57:32;96822.44;;;4.73;100.00
18167;BME280;9208;42.688;23.404;2023-02-15T06:59:58;96822.41;;;4.76;100.00
18167;BME280;9208;42.688;23.404;2023-02-15T07:02:24;96830.16;;;4.78;100.00
18167;BME280;9208;42.688;23.404;2023-02-15T07:04:49;96812.91;;;4.91;100.00
18167;BME280;9208;42.688;23.404;2023-02-15T07:07:14;96828.72;;;5.00;100.00
18167;BME280;9208;42.688;23.404;2023-02-15T07:09:40;96823.69;;;4.98;100.00
18167;BME280;9208;42.688;23.404;2023-02-15T07:12:06;96832.69;;;4.92;100.00
18167;BME280;9208;42.688;23.404;2023-02-15T07:14:51;96833.47;;;4.92;100.00
18167;BME280;9208;42.688;23.404;2023-02-15T07:17:16;96845.47;;;4.95;100.00
18167;BME280;9208;42.688;23.404;2023-02-15T07:19:42;96844.28;;;4.99;100.00
18167;BME280;9208;42.688;23.404;2023-02-15T07:22:08;96839.91;;;5.05;100.00
18167;BME280;9208;42.688;23.404;2023-02-15T07:24:33;96848.41;;;5.07;100.00
18167;BME280;9208;42.688;23.404;2023-02-15T07:26:59;96844.16;;;5.06;100.00
18167;BME280;9208;42.688;23.404;2023-02-15T07:29:24;96842.56;;;5.09;100.00
18167;BME280;9208;42.688;23.404;2023-02-15T07:31:50;96835.53;;;5.11;100.00
18167;BME280;9208;42.688;23.404;2023-02-15T07:34:16;96833.50;;;5.19;100.00
18167;BME280;9208;42.688;23.404;2023-02-15T07:36:41;96833.22;;;5.13;100.00
18167;BME280;9208;42.688;23.404;2023-02-15T07:39:09;96828.84;;;5.19;100.00
18167;BME280;9208;42.688;23.404;2023-02-15T07:41:34;96828.44;;;5.21;100.00
18167;BME280;9208;42.688;23.404;2023-02-15T07:44:00;96831.41;;;5.30;100.00
18167;BME280;9208;42.688;23.404;2023-02-15T07:46:25;96826.84;;;5.23;100.00
18167;BME280;9208;42.688;23.404;2023-02-15T07:48:51;96829.16;;;5.25;100.00
18167;BME280;9208;42.688;23.404;2023-02-15T07:51:16;96838.78;;;5.29;100.00
18167;BME280;9208;42.688;23.404;2023-02-15T07:53:42;96840.72;;;5.32;100.00
18167;BME280;9208;42.688;23.404;2023-02-15T07:56:12;96829.78;;;5.36;100.00
18167;BME280;9208;42.688;23.404;2023-02-15T07:58:38;96828.19;;;5.38;100.00
18167;BME280;9208;42.688;23.404;2023-02-15T08:01:17;96832.41;;;5.43;100.00
18167;BME280;9208;42.688;23.404;2023-02-15T08:03:42;96819.81;;;5.52;100.00
18167;BME280;9208;42.688;23.404;2023-02-15T08:06:08;96833.72;;;5.58;100.00
18167;BME280;9208;42.688;23.404;2023-02-15T08:08:34;96830.94;;;5.61;100.00
18167;BME280;9208;42.688;23.404;2023-02-15T08:16:39;96836.56;;;5.51;100.00
18167;BME280;9208;42.688;23.404;2023-02-15T08:19:06;96836.03;;;5.59;100.00
18167;BME280;9208;42.688;23.404;2023-02-15T08:21:33;96836.38;;;5.61;100.00
18167;BME280;9208;42.688;23.404;2023-02-15T08:23:59;96829.41;;;5.60;100.00
18167;BME280;9208;42.688;23.404;2023-02-15T08:26:26;96828.22;;;5.61;100.00
18167;BME280;9208;42.688;23.404;2023-02-15T08:28:53;96820.25;;;5.51;100.00
18167;BME280;9208;42.688;23.404;2023-02-15T08:31:19;96838.09;;;5.52;100.00
18167;BME280;9208;42.688;23.404;2023-02-15T08:33:46;96837.56;;;5.60;100.00
18167;BME280;9208;42.688;23.404;2023-02-15T08:36:15;96829.31;;;5.67;100.00
18167;BME280;9208;42.688;23.404;2023-02-15T08:38:41;96830.03;;;5.71;100.00
18167;BME280;9208;42.688;23.404;2023-02-15T08:41:24;96835.97;;;5.63;100.00
18167;BME280;9208;42.688;23.404;2023-02-15T08:43:53;96843.31;;;5.66;100.00
18167;BME280;9208;42.688;23.404;2023-02-15T08:46:23;96833.09;;;5.73;100.00
18167;BME280;9208;42.688;23.404;2023-02-15T08:48:49;96840.78;;;5.78;100.00
18167;BME280;9208;42.688;23.404;2023-02-15T08:51:17;96831.44;;;5.79;100.00
18167;BME280;9208;42.688;23.404;2023-02-15T08:53:45;96835.34;;;5.78;100.00
18167;BME280;9208;42.688;23.404;2023-02-15T08:56:14;96842.38;;;5.76;100.00
18167;BME280;9208;42.688;23.404;2023-02-15T08:58:40;96841.78;;;5.91;100.00
18167;BME280;9208;42.688;23.404;2023-02-15T09:01:17;96837.75;;;5.99;100.00
18167;BME280;9208;42.688;23.404;2023-02-15T09:03:44;96838.47;;;6.03;100.00
18167;BME280;9208;42.688;23.404;2023-02-15T09:06:10;96843.44;;;6.08;100.00
18167;BME280;9208;42.688;23.404;2023-02-15T09:08:36;96848.09;;;6.08;100.00
18167;BME280;9208;42.688;23.404;2023-02-15T09:11:28;96843.28;;;6.19;99.88
18167;BME280;9208;42.688;23.404;2023-02-15T09:13:57;96842.06;;;6.20;98.50
18167;BME280;9208;42.688;23.404;2023-02-15T09:16:24;96831.19;;;6.20;98.06
18167;BME280;9208;42.688;23.404;2023-02-15T09:18:50;96837.69;;;6.26;96.22
18167;BME280;9208;42.688;23.404;2023-02-15T09:21:21;96842.94;;;6.36;95.40
18167;BME280;9208;42.688;23.404;2023-02-15T09:23:49;96840.69;;;6.31;94.08
18167;BME280;9208;42.688;23.404;2023-02-15T09:26:17;96841.53;;;6.28;92.85
18167;BME280;9208;42.688;23.404;2023-02-15T09:28:44;96852.31;;;6.35;91.86
18167;BME280;9208;42.688;23.404;2023-02-15T09:31:19;96847.69;;;6.32;91.83
18167;BME280;9208;42.688;23.404;2023-02-15T09:33:47;96847.50;;;6.43;92.75
18167;BME280;9208;42.688;23.404;2023-02-15T09:36:27;96835.69;;;6.49;91.47
18167;BME280;9208;42.688;23.404;2023-02-15T09:39:04;96838.44;;;6.49;91.79
18167;BME280;9208;42.688;23.404;2023-02-15T09:41:44;96832.88;;;6.56;91.52
18167;BME280;9208;42.688;23.404;2023-02-15T09:55:27;96832.31;;;6.84;88.91
18167;BME280;9208;42.688;23.404;2023-02-15T10:12:14;96829.06;;;7.09;85.88
18167;BME280;9208;42.688;23.404;2023-02-15T10:28:19;96820.50;;;7.26;84.58
18167;BME280;9208;42.688;23.404;2023-02-15T10:30:49;96814.13;;;7.33;83.86
18167;BME280;9208;42.688;23.404;2023-02-15T10:39:18;96809.63;;;7.42;81.73
18167;BME280;9208;42.688;23.404;2023-02-15T10:56:09;96802.84;;;7.66;79.65
18167;BME280;9208;42.688;23.404;2023-02-15T11:06:26;96802.81;;;7.98;77.39
18167;BME280;9208;42.688;23.404;2023-02-15T11:08:56;96799.94;;;7.89;78.20
18167;BME280;9208;42.688;23.404;2023-02-15T11:11:29;96784.59;;;7.79;78.49
18167;BME280;9208;42.688;23.404;2023-02-15T11:16:46;96793.63;;;7.92;78.31
18167;BME280;9208;42.688;23.404;2023-02-15T11:19:21;96790.38;;;7.97;78.09
18167;BME280;9208;42.688;23.404;2023-02-15T11:21:53;96797.03;;;7.96;77.84
18167;BME280;9208;42.688;23.404;2023-02-15T11:24:20;96797.34;;;7.98;77.69
18167;BME280;9208;42.688;23.404;2023-02-15T11:26:50;96785.59;;;8.01;77.77
18167;BME280;9208;42.688;23.404;2023-02-15T11:29:38;96787.81;;;8.06;77.25
18167;BME280;9208;42.688;23.404;2023-02-15T11:32:23;96791.91;;;8.14;76.88
18167;BME280;9208;42.688;23.404;2023-02-15T11:40:35;96792.31;;;8.13;76.43
18167;BME280;9208;42.688;23.404;2023-02-15T11:43:15;96788.28;;;8.17;75.96
18167;BME280;9208;42.688;23.404;2023-02-15T11:45:44;96787.97;;;8.15;75.39
18167;BME280;9208;42.688;23.404;2023-02-15T11:48:13;96782.16;;;8.13;75.58
18167;BME280;9208;42.688;23.404;2023-02-15T11:50:39;96775.84;;;8.16;75.14
18167;BME280;9208;42.688;23.404;2023-02-15T11:53:31;96773.81;;;8.04;75.55
18167;BME280;9208;42.688;23.404;2023-02-15T11:55:57;96767.06;;;8.09;76.60
18167;BME280;9208;42.688;23.404;2023-02-15T12:01:09;96763.22;;;8.06;74.95
18167;BME280;9208;42.688;23.404;2023-02-15T12:04:09;96756.22;;;8.05;75.15
18167;BME280;9208;42.688;23.404;2023-02-15T12:06:45;96759.72;;;8.06;75.76
18167;BME280;9208;42.688;23.404;2023-02-15T12:09:37;96744.63;;;8.01;76.02
18167;BME280;9208;42.688;23.404;2023-02-15T12:12:22;96750.56;;;8.12;76.02
18167;BME280;9208;42.688;23.404;2023-02-15T12:15:00;96745.31;;;8.05;74.71
18167;BME280;9208;42.688;23.404;2023-02-15T12:17:29;96727.81;;;8.03;75.46
18167;BME280;9208;42.688;23.404;2023-02-15T12:19:58;96740.16;;;8.07;75.23
18167;BME280;9208;42.688;23.404;2023-02-15T12:22:30;96736.50;;;8.14;75.17
18167;BME280;9208;42.688;23.404;2023-02-15T12:25:04;96732.66;;;8.11;74.94
18167;BME280;9208;42.688;23.404;2023-02-15T12:27:43;96731.81;;;8.14;74.66
18167;BME280;9208;42.688;23.404;2023-02-15T12:32:51;96730.16;;;8.17;74.88
18167;BME280;9208;42.688;23.404;2023-02-15T12:35:36;96727.53;;;8.13;74.53
18167;BME280;9208;42.688;23.404;2023-02-15T12:40:34;96734.72;;;8.23;73.88
18167;BME280;9208;42.688;23.404;2023-02-15T12:43:01;96737.06;;;8.37;72.99
18167;BME280;9208;42.688;23.404;2023-02-15T12:45:34;96734.03;;;8.48;72.77
18167;BME280;9208;42.688;23.404;2023-02-15T12:48:17;96734.59;;;8.55;72.47
18167;BME280;9208;42.688;23.404;2023-02-15T12:50:47;96718.25;;;8.39;73.32
18167;BME280;9208;42.688;23.404;2023-02-15T12:53:31;96709.97;;;8.43;73.58
18167;BME280;9208;42.688;23.404;2023-02-15T12:56:06;96714.97;;;8.44;72.99
18167;BME280;9208;42.688;23.404;2023-02-15T12:58:41;96720.38;;;8.48;71.88
18167;BME280;9208;42.688;23.404;2023-02-15T13:03:50;96728.13;;;8.49;70.96
18167;BME280;9208;42.688;23.404;2023-02-15T13:06:20;96742.25;;;8.60;70.19
18167;BME280;9208;42.688;23.404;2023-02-15T13:08:48;96724.94;;;8.51;70.45
18167;BME280;9208;42.688;23.404;2023-02-15T13:11:20;96733.94;;;8.51;70.92
18167;BME280;9208;42.688;23.404;2023-02-15T13:16:21;96711.28;;;8.51;71.63
18167;BME280;9208;42.688;23.404;2023-02-15T13:18:51;96710.00;;;8.55;71.57
18167;BME280;9208;42.688;23.404;2023-02-15T13:21:20;96720.81;;;8.59;70.55
18167;BME280;9208;42.688;23.404;2023-02-15T13:24:06;96711.88;;;8.71;70.85
18167;BME280;9208;42.688;23.404;2023-02-15T13:26:34;96719.66;;;8.72;70.82
18167;BME280;9208;42.688;23.404;2023-02-15T13:29:06;96725.81;;;8.76;70.45
18167;BME280;9208;42.688;23.404;2023-02-15T13:31:35;96723.50;;;8.75;70.72
18167;BME280;9208;42.688;23.404;2023-02-15T13:34:09;96720.34;;;8.76;70.14
18167;BME280;9208;42.688;23.404;2023-02-15T13:42:32;96727.09;;;8.84;70.60
18167;BME280;9208;42.688;23.404;2023-02-15T13:50:50;96725.81;;;8.76;70.71
18167;BME280;9208;42.688;23.404;2023-02-15T13:56:58;96727.28;;;8.65;71.16
18167;BME280;9208;42.688;23.404;2023-02-15T14:10:46;96744.34;;;8.69;70.79
18167;BME280;9208;42.688;23.404;2023-02-15T14:16:27;96734.31;;;8.66;70.86
18167;BME280;9208;42.688;23.404;2023-02-15T14:24:44;96738.00;;;8.59;72.31
18167;BME280;9208;42.688;23.404;2023-02-15T14:27:31;96736.34;;;8.49;72.56
18167;BME280;9208;42.688;23.404;2023-02-15T14:30:20;96738.94;;;8.40;72.70
18167;BME280;9208;42.688;23.404;2023-02-15T14:32:54;96731.91;;;8.39;73.16
18167;BME280;9208;42.688;23.404;2023-02-15T14:35:22;96728.00;;;8.40;72.92
18167;BME280;9208;42.688;23.404;2023-02-15T14:38:13;96738.25;;;8.36;73.24
18167;BME280;9208;42.688;23.404;2023-02-15T14:40:48;96717.50;;;8.39;73.51
18167;BME280;9208;42.688;23.404;2023-02-15T14:44:28;96716.72;;;8.38;73.69
18167;BME280;9208;42.688;23.404;2023-02-15T14:49:25;96710.78;;;8.27;74.33
18167;BME280;9208;42.688;23.404;2023-02-15T14:51:54;96704.56;;;8.27;74.39
18167;BME280;9208;42.688;23.404;2023-02-15T15:02:21;96702.47;;;8.02;75.50
18167;BME280;9208;42.688;23.404;2023-02-15T15:07:28;96683.44;;;7.99;75.91
18167;BME280;9208;42.688;23.404;2023-02-15T15:15:12;96694.47;;;7.95;75.72
18167;BME280;9208;42.688;23.404;2023-02-15T15:22:39;96701.78;;;7.98;75.55
18167;BME280;9208;42.688;23.404;2023-02-15T15:25:43;96706.81;;;8.00;75.54
18167;BME280;9208;42.688;23.404;2023-02-15T15:31:13;96709.41;;;7.91;75.51
18167;BME280;9208;42.688;23.404;2023-02-15T15:34:27;96712.13;;;7.91;75.85
18167;BME280;9208;42.688;23.404;2023-02-15T15:37:45;96714.44;;;7.92;76.01
18167;BME280;9208;42.688;23.404;2023-02-15T15:50:52;96698.09;;;7.60;78.73
18167;BME280;9208;42.688;23.404;2023-02-15T15:53:24;96689.25;;;7.56;78.90
18167;BME280;9208;42.688;23.404;2023-02-15T15:55:55;96697.06;;;7.54;79.38
18167;BME280;9208;42.688;23.404;2023-02-15T15:58:22;96689.91;;;7.44;79.41
18167;BME280;9208;42.688;23.404;2023-02-15T16:00:59;96689.16;;;7.44;79.76
18167;BME280;9208;42.688;23.404;2023-02-15T16:03:29;96692.31;;;7.42;79.84
18167;BME280;9208;42.688;23.404;2023-02-15T16:05:54;96690.75;;;7.41;80.01
18167;BME280;9208;42.688;23.404;2023-02-15T16:08:34;96697.84;;;7.39;79.89
18167;BME280;9208;42.688;23.404;2023-02-15T16:11:14;96702.28;;;7.33;80.30
18167;BME280;9208;42.688;23.404;2023-02-15T16:13:42;96699.22;;;7.31;80.38
18167;BME280;9208;42.688;23.404;2023-02-15T16:16:09;96697.75;;;7.26;80.83
18167;BME280;9208;42.688;23.404;2023-02-15T16:18:37;96695.41;;;7.28;81.46
18167;BME280;9208;42.688;23.404;2023-02-15T16:21:16;96687.78;;;7.20;81.77
18167;BME280;9208;42.688;23.404;2023-02-15T16:24:14;96691.38;;;7.17;81.96
18167;BME280;9208;42.688;23.404;2023-02-15T16:27:04;96694.53;;;7.15;82.44
18167;BME280;9208;42.688;23.404;2023-02-15T16:29:33;96696.47;;;7.15;82.16
18167;BME280;9208;42.688;23.404;2023-02-15T16:32:05;96695.03;;;7.10;82.46
18167;BME280;9208;42.688;23.404;2023-02-15T16:34:31;96686.91;;;7.07;82.68
18167;BME280;9208;42.688;23.404;2023-02-15T16:39:41;96700.72;;;7.00;83.33